sensor_id;sensor_type;location;lat;lon;timestamp;pressure;altitude;pressure_sealevel;temperature;humidity
29877;BME280;16750;49.002;9.204;2022-08-19T00:00:04;98856.03;;;22.15;100.00
29877;BME280;16750;49.002;9.204;2022-08-19T00:02:29;98855.13;;;22.13;100.00
29877;BME280;16750;49.002;9.204;2022-08-19T00:04:54;98848.06;;;22.10;100.00
29877;BME280;16750;49.002;9.204;2022-08-19T00:07:21;98856.00;;;22.13;100.00
29877;BME280;16750;49.002;9.204;2022-08-19T00:09:46;98852.47;;;22.11;100.00
29877;BME280;16750;49.002;9.204;2022-08-19T00:12:12;98849.84;;;22.10;100.00
29877;BME280;16750;49.002;9.204;2022-08-19T00:14:38;98821.56;;;21.93;100.00
29877;BME280;16750;49.002;9.204;2022-08-19T00:17:07;98842.75;;;22.10;100.00
29877;BME280;16750;49.002;9.204;2022-08-19T00:19:32;98846.28;;;22.11;100.00
29877;BME280;16750;49.002;9.204;2022-08-19T00:21:58;98850.72;;;22.12;100.00
29877;BME280;16750;49.002;9.204;2022-08-19T00:24:24;98812.69;;;21.90;100.00
29877;BME280;16750;49.002;9.204;2022-08-19T00:26:50;98857.81;;;22.10;100.00
29877;BME280;16750;49.002;9.204;2022-08-19T00:29:19;98853.38;;;22.07;100.00
29877;BME280;16750;49.002;9.204;2022-08-19T00:31:45;98855.16;;;22.08;100.00
29877;BME280;16750;49.002;9.204;2022-08-19T00:34:12;98850.75;;;22.06;100.00
29877;BME280;16750;49.002;9.204;2022-08-19T00:36:38;98855.16;;;22.05;100.00
29877;BME280;16750;49.002;9.204;2022-08-19T00:39:05;98848.06;;;22.07;100.00
29877;BME280;16750;49.002;9.204;2022-08-19T00:41:30;98835.69;;;22.08;100.00
29877;BME280;16750;49.002;9.204;2022-08-19T00:44:12;98824.16;;;22.03;100.00
29877;BME280;16750;49.002;9.204;2022-08-19T00:46:39;98822.41;;;21.99;100.00
29877;BME280;16750;49.002;9.204;2022-08-19T00:49:33;98807.34;;;22.01;100.00
29877;BME280;16750;49.002;9.204;2022-08-19T00:52:08;98805.59;;;21.98;100.00
29877;BME280;16750;49.002;9.204;2022-08-19T00:54:36;98775.50;;;21.81;100.00
29877;BME280;16750;49.002;9.204;2022-08-19T00:57:05;98824.19;;;21.98;100.00
29877;BME280;16750;49.002;9.204;2022-08-19T00:59:34;98834.81;;;21.98;100.00
29877;BME280;16750;49.002;9.204;2022-08-19T01:02:01;98801.22;;;21.72;100.00
29877;BME280;16750;49.002;9.204;2022-08-19T01:04:26;98846.31;;;21.99;100.00
29877;BME280;16750;49.002;9.204;2022-08-19T01:06:52;98835.69;;;21.99;100.00
29877;BME280;16750;49.002;9.204;2022-08-19T01:09:17;98816.25;;;21.83;100.00
29877;BME280;16750;49.002;9.204;2022-08-19T01:11:44;98825.09;;;21.79;100.00
29877;BME280;16750;49.002;9.204;2022-08-19T01:14:10;98849.00;;;21.92;100.00
29877;BME280;16750;49.002;9.204;2022-08-19T01:16:37;98839.28;;;21.91;100.00
29877;BME280;16750;49.002;9.204;2022-08-19T01:19:31;98847.22;;;21.93;100.00
29877;BME280;16750;49.002;9.204;2022-08-19T01:22:02;98849.91;;;21.90;100.00
29877;BME280;16750;49.002;9.204;2022-08-19T01:24:28;98843.69;;;21.85;100.00
29877;BME280;16750;49.002;9.204;2022-08-19T01:26:54;98824.25;;;21.73;100.00
29877;BME280;16750;49.002;9.204;2022-08-19T01:29:20;98849.88;;;21.88;100.00
29877;BME280;16750;49.002;9.204;2022-08-19T01:31:45;98843.69;;;21.86;100.00
29877;BME280;16750;49.002;9.204;2022-08-19T01:34:10;98841.03;;;21.89;100.00
29877;BME280;16750;49.002;9.204;2022-08-19T01:36:44;98843.69;;;21.89;100.00
29877;BME280;16750;49.002;9.204;2022-08-19T01:39:22;98806.53;;;21.66;100.00
29877;BME280;16750;49.002;9.204;2022-08-19T01:41:48;98845.47;;;21.90;100.00
29877;BME280;16750;49.002;9.204;2022-08-19T01:44:14;98848.13;;;21.86;100.00
29877;BME280;16750;49.002;9.204;2022-08-19T01:46:40;98837.50;;;21.83;100.00
29877;BME280;16750;49.002;9.204;2022-08-19T01:49:07;98840.19;;;21.80;100.00
29877;BME280;16750;49.002;9.204;2022-08-19T01:51:33;98836.63;;;21.76;100.00
29877;BME280;16750;49.002;9.204;2022-08-19T01:53:58;98836.63;;;21.76;100.00
29877;BME280;16750;49.002;9.204;2022-08-19T01:56:24;98841.06;;;21.77;100.00
29877;BME280;16750;49.002;9.204;2022-08-19T01:58:57;98837.50;;;21.76;100.00
29877;BME280;16750;49.002;9.204;2022-08-19T02:01:23;98833.97;;;21.77;100.00
29877;BME280;16750;49.002;9.204;2022-08-19T02:03:49;98825.16;;;21.71;100.00
29877;BME280;16750;49.002;9.204;2022-08-19T02:06:14;98834.00;;;21.67;100.00
29877;BME280;16750;49.002;9.204;2022-08-19T02:08:42;98803.06;;;21.46;100.00
29877;BME280;16750;49.002;9.204;2022-08-19T02:11:24;98842.84;;;21.61;100.00
29877;BME280;16750;49.002;9.204;2022-08-19T02:13:52;98846.41;;;21.59;100.00
29877;BME280;16750;49.002;9.204;2022-08-19T02:16:18;98834.03;;;21.47;100.00
29877;BME280;16750;49.002;9.204;2022-08-19T02:18:45;98854.38;;;21.49;100.00
29877;BME280;16750;49.002;9.204;2022-08-19T02:21:10;98818.94;;;21.30;100.00
29877;BME280;16750;49.002;9.204;2022-08-19T02:23:36;98846.44;;;21.48;100.00
29877;BME280;16750;49.002;9.204;2022-08-19T02:26:02;98841.97;;;21.45;100.00
29877;BME280;16750;49.002;9.204;2022-08-19T02:28:27;98834.91;;;21.43;100.00
29877;BME280;16750;49.002;9.204;2022-08-19T02:30:53;98841.13;;;21.46;100.00
29877;BME280;16750;49.002;9.204;2022-08-19T02:33:18;98803.03;;;21.24;100.00
29877;BME280;16750;49.002;9.204;2022-08-19T02:35:45;98846.44;;;21.48;100.00
29877;BME280;16750;49.002;9.204;2022-08-19T02:38:10;98839.34;;;21.42;100.00
29877;BME280;16750;49.002;9.204;2022-08-19T02:40:53;98842.00;;;21.44;100.00
29877;BME280;16750;49.002;9.204;2022-08-19T02:43:20;98856.13;;;21.36;100.00
29877;BME280;16750;49.002;9.204;2022-08-19T02:45:46;98848.16;;;21.40;100.00
29877;BME280;16750;49.002;9.204;2022-08-19T02:48:18;98826.03;;;21.22;100.00
29877;BME280;16750;49.002;9.204;2022-08-19T02:50:44;98836.66;;;21.24;100.00
29877;BME280;16750;49.002;9.204;2022-08-19T02:53:10;98813.66;;;21.09;100.00
29877;BME280;16750;49.002;9.204;2022-08-19T02:55:36;98808.34;;;21.12;100.00
29877;BME280;16750;49.002;9.204;2022-08-19T02:58:06;98849.06;;;21.29;100.00
29877;BME280;16750;49.002;9.204;2022-08-19T03:00:32;98803.91;;;21.03;100.00
29877;BME280;16750;49.002;9.204;2022-08-19T03:02:57;98831.34;;;21.21;100.00
29877;BME280;16750;49.002;9.204;2022-08-19T03:05:25;98834.91;;;21.21;100.00
29877;BME280;16750;49.002;9.204;2022-08-19T03:07:52;98830.44;;;21.14;100.00
29877;BME280;16750;49.002;9.204;2022-08-19T03:10:17;98826.00;;;21.02;100.00
29877;BME280;16750;49.002;9.204;2022-08-19T03:12:43;98777.38;;;20.80;100.00
29877;BME280;16750;49.002;9.204;2022-08-19T03:15:08;98833.09;;;21.09;100.00
29877;BME280;16750;49.002;9.204;2022-08-19T03:17:34;98839.28;;;21.04;100.00
29877;BME280;16750;49.002;9.204;2022-08-19T03:20:00;98832.22;;;20.96;100.00
29877;BME280;16750;49.002;9.204;2022-08-19T03:22:26;98819.81;;;20.89;100.00
29877;BME280;16750;49.002;9.204;2022-08-19T03:24:51;98844.59;;;20.93;100.00
29877;BME280;16750;49.002;9.204;2022-08-19T03:27:17;98848.09;;;20.87;100.00
29877;BME280;16750;49.002;9.204;2022-08-19T03:29:42;98856.09;;;20.90;100.00
29877;BME280;16750;49.002;9.204;2022-08-19T03:32:09;98857.84;;;20.93;100.00
29877;BME280;16750;49.002;9.204;2022-08-19T03:34:36;98851.63;;;20.83;100.00
29877;BME280;16750;49.002;9.204;2022-08-19T03:37:08;98857.84;;;20.87;100.00
29877;BME280;16750;49.002;9.204;2022-08-19T03:39:36;98861.38;;;20.86;100.00
29877;BME280;16750;49.002;9.204;2022-08-19T03:42:02;98853.41;;;20.84;100.00
29877;BME280;16750;49.002;9.204;2022-08-19T03:44:29;98832.19;;;20.73;100.00
29877;BME280;16750;49.002;9.204;2022-08-19T03:46:57;98852.53;;;20.84;100.00
29877;BME280;16750;49.002;9.204;2022-08-19T03:49:25;98856.06;;;20.81;100.00
29877;BME280;16750;49.002;9.204;2022-08-19T03:51:52;98820.59;;;20.56;100.00
29877;BME280;16750;49.002;9.204;2022-08-19T03:54:20;98868.44;;;20.81;100.00
29877;BME280;16750;49.002;9.204;2022-08-19T03:56:49;98864.91;;;20.80;100.00
29877;BME280;16750;49.002;9.204;2022-08-19T03:59:22;98859.59;;;20.85;100.00
29877;BME280;16750;49.002;9.204;2022-08-19T04:01:53;98856.06;;;20.81;100.00
29877;BME280;16750;49.002;9.204;2022-08-19T04:04:18;98819.78;;;20.66;100.00
29877;BME280;16750;49.002;9.204;2022-08-19T04:06:44;98856.94;;;20.80;100.00
29877;BME280;16750;49.002;9.204;2022-08-19T04:09:11;98836.56;;;20.62;100.00
29877;BME280;16750;49.002;9.204;2022-08-19T04:11:42;98864.00;;;20.76;100.00
29877;BME280;16750;49.002;9.204;2022-08-19T04:14:10;98862.25;;;20.74;100.00
29877;BME280;16750;49.002;9.204;2022-08-19T04:16:36;98820.56;;;20.48;100.00
29877;BME280;16750;49.002;9.204;2022-08-19T04:19:03;98866.66;;;20.72;100.00
29877;BME280;16750;49.002;9.204;2022-08-19T04:21:29;98837.41;;;20.55;100.00
29877;BME280;16750;49.002;9.204;2022-08-19T04:23:55;98861.34;;;20.67;100.00
29877;BME280;16750;49.002;9.204;2022-08-19T04:26:26;98864.88;;;20.66;100.00
29877;BME280;16750;49.002;9.204;2022-08-19T04:28:52;98832.03;;;20.44;100.00
29877;BME280;16750;49.002;9.204;2022-08-19T04:31:21;98870.16;;;20.63;100.00
29877;BME280;16750;49.002;9.204;2022-08-19T04:33:47;98846.22;;;20.54;100.00
29877;BME280;16750;49.002;9.204;2022-08-19T04:36:21;98858.66;;;20.69;100.00
29877;BME280;16750;49.002;9.204;2022-08-19T04:38:48;98857.81;;;20.70;100.00
29877;BME280;16750;49.002;9.204;2022-08-19T04:41:15;98852.50;;;20.70;100.00
29877;BME280;16750;49.002;9.204;2022-08-19T04:43:59;98821.47;;;20.56;100.00
29877;BME280;16750;49.002;9.204;2022-08-19T04:46:25;98846.31;;;20.71;100.00
29877;BME280;16750;49.002;9.204;2022-08-19T04:48:51;98846.31;;;20.72;100.00
29877;BME280;16750;49.002;9.204;2022-08-19T04:51:16;98841.00;;;20.62;100.00
29877;BME280;16750;49.002;9.204;2022-08-19T04:53:42;98853.38;;;20.69;100.00
29877;BME280;16750;49.002;9.204;2022-08-19T04:56:12;98867.53;;;20.77;100.00
29877;BME280;16750;49.002;9.204;2022-08-19T04:58:41;98864.91;;;20.83;100.00
29877;BME280;16750;49.002;9.204;2022-08-19T05:01:15;98869.34;;;20.84;100.00
29877;BME280;16750;49.002;9.204;2022-08-19T05:03:42;98842.75;;;20.69;100.00
29877;BME280;16750;49.002;9.204;2022-08-19T05:06:10;98881.75;;;20.96;100.00
29877;BME280;16750;49.002;9.204;2022-08-19T05:08:37;98864.03;;;20.87;100.00
29877;BME280;16750;49.002;9.204;2022-08-19T05:11:15;98874.66;;;20.90;100.00
29877;BME280;16750;49.002;9.204;2022-08-19T05:13:42;98880.88;;;21.03;100.00
29877;BME280;16750;49.002;9.204;2022-08-19T05:16:09;98880.88;;;21.09;100.00
29877;BME280;16750;49.002;9.204;2022-08-19T05:18:35;98853.47;;;21.03;100.00
29877;BME280;16750;49.002;9.204;2022-08-19T05:21:20;98887.09;;;21.28;100.00
29877;BME280;16750;49.002;9.204;2022-08-19T05:24:05;98899.50;;;21.43;100.00
29877;BME280;16750;49.002;9.204;2022-08-19T05:26:38;98895.97;;;21.49;100.00
29877;BME280;16750;49.002;9.204;2022-08-19T05:29:05;98903.94;;;21.50;100.00
29877;BME280;16750;49.002;9.204;2022-08-19T05:31:32;98904.84;;;21.51;100.00
29877;BME280;16750;49.002;9.204;2022-08-19T05:33:58;98911.03;;;21.54;100.00
29877;BME280;16750;49.002;9.204;2022-08-19T05:36:28;98908.38;;;21.61;100.00
29877;BME280;16750;49.002;9.204;2022-08-19T05:38:54;98918.09;;;21.62;100.00
29877;BME280;16750;49.002;9.204;2022-08-19T05:41:21;98902.19;;;21.46;100.00
29877;BME280;16750;49.002;9.204;2022-08-19T05:43:55;98934.94;;;21.61;100.00
29877;BME280;16750;49.002;9.204;2022-08-19T05:46:21;98908.38;;;21.44;100.00
29877;BME280;16750;49.002;9.204;2022-08-19T05:48:47;98950.88;;;21.59;100.00
29877;BME280;16750;49.002;9.204;2022-08-19T05:51:14;98949.09;;;21.61;100.00
29877;BME280;16750;49.002;9.204;2022-08-19T05:53:41;98953.53;;;21.61;100.00
29877;BME280;16750;49.002;9.204;2022-08-19T05:56:10;98957.06;;;21.63;100.00
29877;BME280;16750;49.002;9.204;2022-08-19T05:58:36;98926.97;;;21.53;100.00
29877;BME280;16750;49.002;9.204;2022-08-19T06:01:13;98963.28;;;21.75;100.00
29877;BME280;16750;49.002;9.204;2022-08-19T06:03:39;98961.50;;;21.71;100.00
29877;BME280;16750;49.002;9.204;2022-08-19T06:06:06;98957.06;;;21.72;100.00
29877;BME280;16750;49.002;9.204;2022-08-19T06:08:34;98967.69;;;21.75;100.00
29877;BME280;16750;49.002;9.204;2022-08-19T06:11:23;98928.72;;;21.68;100.00
29877;BME280;16750;49.002;9.204;2022-08-19T06:13:51;98962.38;;;21.78;100.00
29877;BME280;16750;49.002;9.204;2022-08-19T06:16:21;98950.88;;;21.77;100.00
29877;BME280;16750;49.002;9.204;2022-08-19T06:18:51;98957.94;;;21.79;100.00
29877;BME280;16750;49.002;9.204;2022-08-19T06:21:19;98954.41;;;21.83;100.00
29877;BME280;16750;49.002;9.204;2022-08-19T06:23:46;98946.44;;;21.80;100.00
29877;BME280;16750;49.002;9.204;2022-08-19T06:26:13;98966.81;;;21.96;100.00
29877;BME280;16750;49.002;9.204;2022-08-19T06:28:39;98939.38;;;21.77;100.00
29877;BME280;16750;49.002;9.204;2022-08-19T06:31:20;98957.94;;;21.97;100.00
29877;BME280;16750;49.002;9.204;2022-08-19T06:33:47;98957.94;;;22.06;100.00
29877;BME280;16750;49.002;9.204;2022-08-19T06:36:24;98950.84;;;22.13;100.00
29877;BME280;16750;49.002;9.204;2022-08-19T06:39:06;98949.94;;;22.19;100.00
29877;BME280;16750;49.002;9.204;2022-08-19T06:41:39;98954.38;;;22.35;100.00
29877;BME280;16750;49.002;9.204;2022-08-19T06:44:07;98949.00;;;22.50;100.00
29877;BME280;16750;49.002;9.204;2022-08-19T06:46:33;98956.94;;;22.63;100.00
29877;BME280;16750;49.002;9.204;2022-08-19T06:48:59;98944.50;;;22.63;100.00
29877;BME280;16750;49.002;9.204;2022-08-19T06:51:25;98960.41;;;22.82;100.00
29877;BME280;16750;49.002;9.204;2022-08-19T06:53:54;98961.25;;;22.90;100.00
29877;BME280;16750;49.002;9.204;2022-08-19T06:56:26;98952.41;;;22.92;100.00
29877;BME280;16750;49.002;9.204;2022-08-19T06:59:09;98968.34;;;22.95;100.00
29877;BME280;16750;49.002;9.204;2022-08-19T07:01:44;98966.59;;;22.84;100.00
29877;BME280;16750;49.002;9.204;2022-08-19T07:04:18;98961.31;;;22.82;100.00
29877;BME280;16750;49.002;9.204;2022-08-19T07:06:44;98914.41;;;22.58;100.00
29877;BME280;16750;49.002;9.204;2022-08-19T07:09:12;98953.28;;;22.93;100.00
29877;BME280;16750;49.002;9.204;2022-08-19T07:11:38;98950.63;;;22.84;100.00
29877;BME280;16750;49.002;9.204;2022-08-19T07:14:04;98958.63;;;22.85;100.00
29877;BME280;16750;49.002;9.204;2022-08-19T07:16:30;98967.50;;;22.87;100.00
29877;BME280;16750;49.002;9.204;2022-08-19T07:18:56;98963.00;;;22.95;100.00
29877;BME280;16750;49.002;9.204;2022-08-19T07:21:24;98974.53;;;23.04;100.00
29877;BME280;16750;49.002;9.204;2022-08-19T07:23:54;98970.06;;;23.09;100.00
29877;BME280;16750;49.002;9.204;2022-08-19T07:26:28;98973.53;;;23.25;100.00
29877;BME280;16750;49.002;9.204;2022-08-19T07:28:54;98953.06;;;23.34;100.00
29877;BME280;16750;49.002;9.204;2022-08-19T07:31:23;98974.22;;;23.57;100.00
29877;BME280;16750;49.002;9.204;2022-08-19T07:33:51;98950.31;;;23.47;100.00
29877;BME280;16750;49.002;9.204;2022-08-19T07:36:19;98988.56;;;23.35;100.00
29877;BME280;16750;49.002;9.204;2022-08-19T07:38:48;98975.34;;;23.18;100.00
29877;BME280;16750;49.002;9.204;2022-08-19T07:41:18;98985.06;;;23.25;100.00
29877;BME280;16750;49.002;9.204;2022-08-19T07:43:43;98980.53;;;23.40;100.00
29877;BME280;16750;49.002;9.204;2022-08-19T07:46:10;98986.84;;;23.25;100.00
29877;BME280;16750;49.002;9.204;2022-08-19T07:48:36;98962.09;;;23.07;100.00
29877;BME280;16750;49.002;9.204;2022-08-19T07:51:04;98984.19;;;23.23;100.00
29877;BME280;16750;49.002;9.204;2022-08-19T07:53:31;98983.28;;;23.30;100.00
29877;BME280;16750;49.002;9.204;2022-08-19T07:55:58;98983.19;;;23.43;100.00
29877;BME280;16750;49.002;9.204;2022-08-19T07:58:35;98951.28;;;23.38;100.00
29877;BME280;16750;49.002;9.204;2022-08-19T08:01:01;98986.56;;;23.69;100.00
29877;BME280;16750;49.002;9.204;2022-08-19T08:03:28;98984.84;;;23.62;100.00
29877;BME280;16750;49.002;9.204;2022-08-19T08:06:13;98980.47;;;23.55;100.00
29877;BME280;16750;49.002;9.204;2022-08-19T08:08:58;98991.91;;;23.69;100.00
29877;BME280;16750;49.002;9.204;2022-08-19T08:11:43;98994.53;;;23.74;100.00
29877;BME280;16750;49.002;9.204;2022-08-19T08:14:18;98987.38;;;23.81;100.00
29877;BME280;16750;49.002;9.204;2022-08-19T08:16:45;98991.03;;;23.66;100.00
29877;BME280;16750;49.002;9.204;2022-08-19T08:19:11;98985.75;;;23.58;100.00
29877;BME280;16750;49.002;9.204;2022-08-19T08:21:37;98972.47;;;23.53;100.00
29877;BME280;16750;49.002;9.204;2022-08-19T08:24:02;98991.84;;;23.72;100.00
29877;BME280;16750;49.002;9.204;2022-08-19T08:26:28;98997.19;;;23.77;100.00
29877;BME280;16750;49.002;9.204;2022-08-19T08:28:54;99002.53;;;23.71;100.00
29877;BME280;16750;49.002;9.204;2022-08-19T08:31:19;99003.44;;;23.68;100.00
29877;BME280;16750;49.002;9.204;2022-08-19T08:33:46;98998.94;;;23.75;100.00
29877;BME280;16750;49.002;9.204;2022-08-19T08:36:12;99000.78;;;23.70;100.00
29877;BME280;16750;49.002;9.204;2022-08-19T08:38:40;98962.72;;;23.51;100.00
29877;BME280;16750;49.002;9.204;2022-08-19T08:41:18;98994.50;;;23.77;100.00
29877;BME280;16750;49.002;9.204;2022-08-19T08:43:49;99005.94;;;23.94;100.00
29877;BME280;16750;49.002;9.204;2022-08-19T08:48:50;98964.38;;;23.66;100.00
29877;BME280;16750;49.002;9.204;2022-08-19T08:51:40;98999.75;;;23.94;100.00
29877;BME280;16750;49.002;9.204;2022-08-19T08:54:13;98996.09;;;24.04;100.00
29877;BME280;16750;49.002;9.204;2022-08-19T08:56:41;98990.59;;;24.23;100.00
29877;BME280;16750;49.002;9.204;2022-08-19T08:59:22;98999.88;;;24.70;96.30
29877;BME280;16750;49.002;9.204;2022-08-19T09:01:49;98963.84;;;25.08;90.70
29877;BME280;16750;49.002;9.204;2022-08-19T09:04:15;98969.88;;;25.81;85.07
29877;BME280;16750;49.002;9.204;2022-08-19T09:09:45;98978.88;;;26.30;80.41
29877;BME280;16750;49.002;9.204;2022-08-19T09:15:11;98991.31;;;26.34;80.85
29877;BME280;16750;49.002;9.204;2022-08-19T09:17:37;98978.16;;;26.22;81.28
29877;BME280;16750;49.002;9.204;2022-08-19T09:20:15;98980.63;;;26.31;80.94
29877;BME280;16750;49.002;9.204;2022-08-19T09:22:43;98979.28;;;26.56;79.25
29877;BME280;16750;49.002;9.204;2022-08-19T09:25:11;98987.75;;;26.80;77.44
29877;BME280;16750;49.002;9.204;2022-08-19T09:27:38;98991.28;;;26.82;78.26
29877;BME280;16750;49.002;9.204;2022-08-19T09:30:06;98994.00;;;26.81;76.83
29877;BME280;16750;49.002;9.204;2022-08-19T09:32:33;98998.03;;;26.56;78.81
29877;BME280;16750;49.002;9.204;2022-08-19T09:34:58;98964.06;;;26.10;80.82
29877;BME280;16750;49.002;9.204;2022-08-19T09:37:26;98986.09;;;26.25;82.01
29877;BME280;16750;49.002;9.204;2022-08-19T09:39:52;99000.63;;;26.10;82.68
29877;BME280;16750;49.002;9.204;2022-08-19T09:42:18;98998.19;;;25.96;84.38
29877;BME280;16750;49.002;9.204;2022-08-19T09:44:43;99004.44;;;25.96;84.69
29877;BME280;16750;49.002;9.204;2022-08-19T09:47:10;98987.63;;;25.87;84.11
29877;BME280;16750;49.002;9.204;2022-08-19T09:49:36;98993.16;;;25.74;86.48
29877;BME280;16750;49.002;9.204;2022-08-19T09:52:03;98958.91;;;25.44;86.27
29877;BME280;16750;49.002;9.204;2022-08-19T09:54:29;98989.13;;;25.47;87.25
29877;BME280;16750;49.002;9.204;2022-08-19T09:56:55;99003.28;;;25.52;88.20
29877;BME280;16750;49.002;9.204;2022-08-19T09:59:22;98976.84;;;25.34;88.75
29877;BME280;16750;49.002;9.204;2022-08-19T10:01:48;99004.22;;;25.50;89.79
29877;BME280;16750;49.002;9.204;2022-08-19T10:04:13;99000.84;;;25.37;89.32
29877;BME280;16750;49.002;9.204;2022-08-19T10:06:40;99002.84;;;25.23;91.27
29877;BME280;16750;49.002;9.204;2022-08-19T10:09:07;99015.53;;;25.02;94.15
29877;BME280;16750;49.002;9.204;2022-08-19T10:11:35;99005.19;;;24.74;96.15
29877;BME280;16750;49.002;9.204;2022-08-19T10:14:03;99007.03;;;24.68;97.36
29877;BME280;16750;49.002;9.204;2022-08-19T10:16:31;98998.34;;;24.52;100.00
29877;BME280;16750;49.002;9.204;2022-08-19T10:18:57;98985.03;;;24.41;99.23
29877;BME280;16750;49.002;9.204;2022-08-19T10:21:25;99001.88;;;24.52;99.64
29877;BME280;16750;49.002;9.204;2022-08-19T10:23:54;98998.22;;;24.60;99.78
29877;BME280;16750;49.002;9.204;2022-08-19T10:26:24;98967.22;;;24.46;97.79
29877;BME280;16750;49.002;9.204;2022-08-19T10:28:50;98994.47;;;24.76;96.96
29877;BME280;16750;49.002;9.204;2022-08-19T10:31:25;98991.50;;;25.01;94.07
29877;BME280;16750;49.002;9.204;2022-08-19T10:33:51;98986.44;;;25.49;87.28
29877;BME280;16750;49.002;9.204;2022-08-19T10:36:29;98980.94;;;26.14;81.53
29877;BME280;16750;49.002;9.204;2022-08-19T10:38:57;98984.97;;;26.85;76.50
29877;BME280;16750;49.002;9.204;2022-08-19T10:41:30;98982.09;;;27.37;69.16
29877;BME280;16750;49.002;9.204;2022-08-19T10:43:58;98979.41;;;27.76;66.24
29877;BME280;16750;49.002;9.204;2022-08-19T10:46:25;98988.19;;;27.82;63.36
29877;BME280;16750;49.002;9.204;2022-08-19T10:48:52;98950.88;;;27.72;64.54
29877;BME280;16750;49.002;9.204;2022-08-19T10:51:18;98966.25;;;28.03;62.78
29877;BME280;16750;49.002;9.204;2022-08-19T10:54:02;98959.31;;;28.27;60.72
29877;BME280;16750;49.002;9.204;2022-08-19T10:56:28;98976.16;;;28.67;59.37
29877;BME280;16750;49.002;9.204;2022-08-19T10:59:13;98973.81;;;28.22;58.61
29877;BME280;16750;49.002;9.204;2022-08-19T11:01:41;98959.38;;;27.91;60.82
29877;BME280;16750;49.002;9.204;2022-08-19T11:04:07;98981.94;;;27.45;62.53
29877;BME280;16750;49.002;9.204;2022-08-19T11:06:40;98974.38;;;26.80;65.58
29877;BME280;16750;49.002;9.204;2022-08-19T11:09:07;98981.91;;;26.60;68.47
29877;BME280;16750;49.002;9.204;2022-08-19T11:11:34;98964.19;;;26.52;70.15
29877;BME280;16750;49.002;9.204;2022-08-19T11:14:05;98981.25;;;26.47;72.33
29877;BME280;16750;49.002;9.204;2022-08-19T11:16:30;98941.31;;;26.36;71.56
29877;BME280;16750;49.002;9.204;2022-08-19T11:18:58;98964.19;;;26.52;71.76
29877;BME280;16750;49.002;9.204;2022-08-19T11:21:29;98974.72;;;26.62;71.33
29877;BME280;16750;49.002;9.204;2022-08-19T11:23:58;98970.81;;;26.80;70.27
29877;BME280;16750;49.002;9.204;2022-08-19T11:26:25;98970.69;;;26.86;70.31
29877;BME280;16750;49.002;9.204;2022-08-19T11:28:51;98964.22;;;26.96;70.16
29877;BME280;16750;49.002;9.204;2022-08-19T11:31:22;98960.56;;;27.00;70.63
29877;BME280;16750;49.002;9.204;2022-08-19T11:33:48;98965.53;;;27.18;69.12
29877;BME280;16750;49.002;9.204;2022-08-19T11:36:18;98951.50;;;27.46;68.17
29877;BME280;16750;49.002;9.204;2022-08-19T11:38:48;98950.19;;;28.02;64.51
29877;BME280;16750;49.002;9.204;2022-08-19T11:41:16;98971.91;;;28.60;61.02
29877;BME280;16750;49.002;9.204;2022-08-19T11:43:42;98942.16;;;28.67;60.45
29877;BME280;16750;49.002;9.204;2022-08-19T11:46:14;98972.59;;;28.97;59.33
29877;BME280;16750;49.002;9.204;2022-08-19T11:48:40;98960.78;;;29.03;58.85
29877;BME280;16750;49.002;9.204;2022-08-19T11:51:10;98968.03;;;29.01;59.52
29877;BME280;16750;49.002;9.204;2022-08-19T11:53:38;98965.19;;;29.06;58.71
29877;BME280;16750;49.002;9.204;2022-08-19T11:56:05;98967.50;;;28.88;58.35
29877;BME280;16750;49.002;9.204;2022-08-19T11:58:31;98941.78;;;28.15;61.05
29877;BME280;16750;49.002;9.204;2022-08-19T12:00:57;98950.88;;;27.72;63.29
29877;BME280;16750;49.002;9.204;2022-08-19T12:03:23;98916.84;;;27.38;64.67
29877;BME280;16750;49.002;9.204;2022-08-19T12:05:49;98969.81;;;27.27;64.92
29877;BME280;16750;49.002;9.204;2022-08-19T12:08:16;98961.94;;;27.18;64.25
29877;BME280;16750;49.002;9.204;2022-08-19T12:10:42;98957.63;;;27.12;63.80
29877;BME280;16750;49.002;9.204;2022-08-19T12:13:08;98964.47;;;26.84;68.05
29877;BME280;16750;49.002;9.204;2022-08-19T12:15:39;98968.06;;;26.83;67.46
29877;BME280;16750;49.002;9.204;2022-08-19T12:18:07;98954.91;;;26.72;67.69
29877;BME280;16750;49.002;9.204;2022-08-19T12:20:38;98965.47;;;26.78;67.95
29877;BME280;16750;49.002;9.204;2022-08-19T12:23:05;98959.31;;;26.74;67.91
29877;BME280;16750;49.002;9.204;2022-08-19T12:25:31;98959.47;;;26.67;68.24
29877;BME280;16750;49.002;9.204;2022-08-19T12:27:58;98952.78;;;26.43;69.79
29877;BME280;16750;49.002;9.204;2022-08-19T12:30:24;98954.16;;;26.17;70.37
29877;BME280;16750;49.002;9.204;2022-08-19T12:32:49;98964.34;;;25.95;70.97
29877;BME280;16750;49.002;9.204;2022-08-19T12:35:16;98957.75;;;25.62;88.61
29877;BME280;16750;49.002;9.204;2022-08-19T12:37:42;98967.59;;;24.11;100.00
29877;BME280;16750;49.002;9.204;2022-08-19T12:40:10;98953.09;;;23.27;100.00
29877;BME280;16750;49.002;9.204;2022-08-19T12:42:38;98967.38;;;23.20;100.00
29877;BME280;16750;49.002;9.204;2022-08-19T12:45:09;98970.88;;;23.25;100.00
29877;BME280;16750;49.002;9.204;2022-08-19T12:47:35;98969.03;;;23.33;100.00
29877;BME280;16750;49.002;9.204;2022-08-19T12:50:00;98973.44;;;23.42;100.00
29877;BME280;16750;49.002;9.204;2022-08-19T12:52:26;98961.84;;;23.50;100.00
29877;BME280;16750;49.002;9.204;2022-08-19T12:54:54;98967.03;;;23.67;100.00
29877;BME280;16750;49.002;9.204;2022-08-19T12:57:19;98963.44;;;23.77;100.00
29877;BME280;16750;49.002;9.204;2022-08-19T12:59:45;98965.09;;;23.89;100.00
29877;BME280;16750;49.002;9.204;2022-08-19T13:02:10;98958.78;;;24.04;100.00
29877;BME280;16750;49.002;9.204;2022-08-19T13:04:36;98964.91;;;24.12;100.00
29877;BME280;16750;49.002;9.204;2022-08-19T13:07:06;98958.72;;;24.10;100.00